sensor_id;sensor_type;location;lat;lon;timestamp;temperature;humidity
21417;DHT22;10869;52.238;10.716;2022-09-09T03:02:17;14.30;99.90
21417;DHT22;10869;52.238;10.716;2022-09-09T03:04:44;14.30;99.90
21417;DHT22;10869;52.238;10.716;2022-09-09T03:07:16;14.30;99.90
21417;DHT22;10869;52.238;10.716;2022-09-09T03:09:43;14.30;99.90
21417;DHT22;10869;52.238;10.716;2022-09-09T03:12:08;14.30;99.90
21417;DHT22;10869;52.238;10.716;2022-09-09T03:14:36;14.30;99.90
21417;DHT22;10869;52.238;10.716;2022-09-09T03:17:02;14.40;99.90
21417;DHT22;10869;52.238;10.716;2022-09-09T03:19:28;14.40;99.90
21417;DHT22;10869;52.238;10.716;2022-09-09T03:21:54;14.40;99.90
21417;DHT22;10869;52.238;10.716;2022-09-09T03:24:19;14.50;99.90
21417;DHT22;10869;52.238;10.716;2022-09-09T03:26:45;14.50;99.90
21417;DHT22;10869;52.238;10.716;2022-09-09T03:29:12;14.50;99.90
21417;DHT22;10869;52.238;10.716;2022-09-09T03:31:39;14.50;99.90
21417;DHT22;10869;52.238;10.716;2022-09-09T03:34:05;14.50;99.90
21417;DHT22;10869;52.238;10.716;2022-09-09T03:36:31;14.50;99.90
21417;DHT22;10869;52.238;10.716;2022-09-09T03:38:57;14.40;99.90
21417;DHT22;10869;52.238;10.716;2022-09-09T03:41:24;14.50;99.90
21417;DHT22;10869;52.238;10.716;2022-09-09T03:43:50;14.40;99.90
21417;DHT22;10869;52.238;10.716;2022-09-09T03:46:20;14.40;99.90
21417;DHT22;10869;52.238;10.716;2022-09-09T03:52:09;14.30;99.90
21417;DHT22;10869;52.238;10.716;2022-09-09T03:54:35;14.30;99.90
21417;DHT22;10869;52.238;10.716;2022-09-09T03:57:04;14.30;99.90
21417;DHT22;10869;52.238;10.716;2022-09-09T03:59:37;14.30;99.90
21417;DHT22;10869;52.238;10.716;2022-09-09T04:02:08;14.30;99.90
21417;DHT22;10869;52.238;10.716;2022-09-09T04:04:41;14.30;99.90
21417;DHT22;10869;52.238;10.716;2022-09-09T04:07:13;14.30;99.90
21417;DHT22;10869;52.238;10.716;2022-09-09T04:09:51;14.30;99.90
21417;DHT22;10869;52.238;10.716;2022-09-09T04:15:58;14.30;99.90
21417;DHT22;10869;52.238;10.716;2022-09-09T04:18:25;14.30;99.90
21417;DHT22;10869;52.238;10.716;2022-09-09T04:20:54;14.30;99.90
21417;DHT22;10869;52.238;10.716;2022-09-09T04:23:25;14.30;99.90
21417;DHT22;10869;52.238;10.716;2022-09-09T04:25:56;14.40;99.90
21417;DHT22;10869;52.238;10.716;2022-09-09T04:28:29;14.40;99.90
21417;DHT22;10869;52.238;10.716;2022-09-09T04:31:12;14.40;99.90
21417;DHT22;10869;52.238;10.716;2022-09-09T04:33:40;14.50;99.90
21417;DHT22;10869;52.238;10.716;2022-09-09T04:36:07;14.50;99.90
21417;DHT22;10869;52.238;10.716;2022-09-09T04:38:35;14.50;99.90
21417;DHT22;10869;52.238;10.716;2022-09-09T04:41:02;14.50;99.90
21417;DHT22;10869;52.238;10.716;2022-09-09T04:43:31;14.50;99.90
21417;DHT22;10869;52.238;10.716;2022-09-09T04:46:03;14.60;99.90
21417;DHT22;10869;52.238;10.716;2022-09-09T04:48:31;14.70;99.90
21417;DHT22;10869;52.238;10.716;2022-09-09T04:51:03;14.60;99.90
21417;DHT22;10869;52.238;10.716;2022-09-09T04:58:43;14.70;99.90
21417;DHT22;10869;52.238;10.716;2022-09-09T05:01:17;14.70;99.90
21417;DHT22;10869;52.238;10.716;2022-09-09T05:03:44;14.70;99.90
21417;DHT22;10869;52.238;10.716;2022-09-09T05:06:16;14.60;99.90
21417;DHT22;10869;52.238;10.716;2022-09-09T05:08:43;14.60;99.90
21417;DHT22;10869;52.238;10.716;2022-09-09T05:11:25;14.60;99.90
21417;DHT22;10869;52.238;10.716;2022-09-09T05:13:53;14.60;99.90
21417;DHT22;10869;52.238;10.716;2022-09-09T05:16:19;14.70;99.90
21417;DHT22;10869;52.238;10.716;2022-09-09T05:18:45;14.70;99.90
21417;DHT22;10869;52.238;10.716;2022-09-09T05:21:13;14.70;99.90
21417;DHT22;10869;52.238;10.716;2022-09-09T05:23:39;14.80;99.90
21417;DHT22;10869;52.238;10.716;2022-09-09T05:26:07;14.80;99.90
21417;DHT22;10869;52.238;10.716;2022-09-09T05:28:34;14.90;99.90
21417;DHT22;10869;52.238;10.716;2022-09-09T05:31:06;14.90;99.90
21417;DHT22;10869;52.238;10.716;2022-09-09T05:33:37;14.90;99.90
21417;DHT22;10869;52.238;10.716;2022-09-09T05:39:28;15.00;99.90
21417;DHT22;10869;52.238;10.716;2022-09-09T05:45:15;15.10;99.90
21417;DHT22;10869;52.238;10.716;2022-09-09T05:51:06;15.20;99.90
21417;DHT22;10869;52.238;10.716;2022-09-09T05:53:34;15.20;99.90
21417;DHT22;10869;52.238;10.716;2022-09-09T05:56:08;15.20;99.90
21417;DHT22;10869;52.238;10.716;2022-09-09T05:58:36;15.30;99.90
21417;DHT22;10869;52.238;10.716;2022-09-09T06:01:11;15.30;99.90
21417;DHT22;10869;52.238;10.716;2022-09-09T06:03:40;15.40;99.90
21417;DHT22;10869;52.238;10.716;2022-09-09T06:06:08;15.50;99.90
21417;DHT22;10869;52.238;10.716;2022-09-09T06:08:37;15.60;99.90
21417;DHT22;10869;52.238;10.716;2022-09-09T06:14:26;15.60;99.90
21417;DHT22;10869;52.238;10.716;2022-09-09T06:20:15;15.60;99.90
21417;DHT22;10869;52.238;10.716;2022-09-09T06:22:41;15.60;99.90
21417;DHT22;10869;52.238;10.716;2022-09-09T06:31:13;15.90;99.90
21417;DHT22;10869;52.238;10.716;2022-09-09T06:33:42;15.90;99.90
21417;DHT22;10869;52.238;10.716;2022-09-09T06:36:18;16.00;99.90
21417;DHT22;10869;52.238;10.716;2022-09-09T06:38:50;16.10;99.90
21417;DHT22;10869;52.238;10.716;2022-09-09T06:41:21;16.10;99.90
21417;DHT22;10869;52.238;10.716;2022-09-09T06:43:48;16.10;99.90
21417;DHT22;10869;52.238;10.716;2022-09-09T06:46:17;16.10;99.90
21417;DHT22;10869;52.238;10.716;2022-09-09T06:48:44;16.10;99.90
21417;DHT22;10869;52.238;10.716;2022-09-09T06:51:12;16.10;99.90
21417;DHT22;10869;52.238;10.716;2022-09-09T07:00:22;16.20;99.90
21417;DHT22;10869;52.238;10.716;2022-09-09T07:02:50;16.40;99.90
21417;DHT22;10869;52.238;10.716;2022-09-09T07:05:16;16.30;99.90
21417;DHT22;10869;52.238;10.716;2022-09-09T07:07:42;16.40;99.90
21417;DHT22;10869;52.238;10.716;2022-09-09T07:10:08;16.50;99.90
21417;DHT22;10869;52.238;10.716;2022-09-09T07:12:34;16.70;99.90
21417;DHT22;10869;52.238;10.716;2022-09-09T07:15:00;16.90;99.90
21417;DHT22;10869;52.238;10.716;2022-09-09T07:17:27;17.00;99.90
21417;DHT22;10869;52.238;10.716;2022-09-09T07:23:16;17.40;99.90
21417;DHT22;10869;52.238;10.716;2022-09-09T07:25:46;17.60;99.90
21417;DHT22;10869;52.238;10.716;2022-09-09T07:31:37;17.40;99.90
21417;DHT22;10869;52.238;10.716;2022-09-09T07:34:04;17.30;99.90
21417;DHT22;10869;52.238;10.716;2022-09-09T07:36:38;17.30;99.90
21417;DHT22;10869;52.238;10.716;2022-09-09T07:39:10;17.30;99.90
21417;DHT22;10869;52.238;10.716;2022-09-09T07:41:41;17.50;99.90
21417;DHT22;10869;52.238;10.716;2022-09-09T07:44:13;17.60;99.90
21417;DHT22;10869;52.238;10.716;2022-09-09T07:46:51;17.70;99.90
21417;DHT22;10869;52.238;10.716;2022-09-09T07:49:29;17.80;99.90
21417;DHT22;10869;52.238;10.716;2022-09-09T07:51:55;17.80;99.90
21417;DHT22;10869;52.238;10.716;2022-09-09T07:54:21;17.70;99.90
21417;DHT22;10869;52.238;10.716;2022-09-09T07:56:59;17.70;99.90
21417;DHT22;10869;52.238;10.716;2022-09-09T07:59:27;17.80;99.90
21417;DHT22;10869;52.238;10.716;2022-09-09T08:01:55;17.80;99.90
21417;DHT22;10869;52.238;10.716;2022-09-09T08:04:23;17.90;99.90
21417;DHT22;10869;52.238;10.716;2022-09-09T08:06:58;17.90;99.90
21417;DHT22;10869;52.238;10.716;2022-09-09T08:16:11;18.40;99.90
21417;DHT22;10869;52.238;10.716;2022-09-09T08:18:38;18.70;99.90
21417;DHT22;10869;52.238;10.716;2022-09-09T08:21:10;18.90;99.90
21417;DHT22;10869;52.238;10.716;2022-09-09T08:23:41;19.20;99.90
21417;DHT22;10869;52.238;10.716;2022-09-09T08:26:13;19.50;99.90
21417;DHT22;10869;52.238;10.716;2022-09-09T08:28:40;19.70;99.90
21417;DHT22;10869;52.238;10.716;2022-09-09T08:33:36;19.80;99.90
21417;DHT22;10869;52.238;10.716;2022-09-09T08:36:04;19.80;99.90
21417;DHT22;10869;52.238;10.716;2022-09-09T08:38:31;19.80;99.90
21417;DHT22;10869;52.238;10.716;2022-09-09T08:43:46;20.10;99.90
21417;DHT22;10869;52.238;10.716;2022-09-09T08:48:52;19.70;99.90
21417;DHT22;10869;52.238;10.716;2022-09-09T08:51:20;19.60;99.90
21417;DHT22;10869;52.238;10.716;2022-09-09T08:53:51;19.50;99.90
21417;DHT22;10869;52.238;10.716;2022-09-09T08:56:21;19.30;99.90
21417;DHT22;10869;52.238;10.716;2022-09-09T08:58:53;19.60;99.90
21417;DHT22;10869;52.238;10.716;2022-09-09T09:02:18;20.00;99.90
21417;DHT22;10869;52.238;10.716;2022-09-09T09:12:42;21.60;99.90
21417;DHT22;10869;52.238;10.716;2022-09-09T09:15:36;21.90;99.90
21417;DHT22;10869;52.238;10.716;2022-09-09T09:18:03;22.10;99.90
21417;DHT22;10869;52.238;10.716;2022-09-09T09:20:44;22.00;99.90
21417;DHT22;10869;52.238;10.716;2022-09-09T09:23:19;22.00;99.90
21417;DHT22;10869;52.238;10.716;2022-09-09T09:25:46;21.70;99.90
21417;DHT22;10869;52.238;10.716;2022-09-09T09:28:16;21.90;99.90
21417;DHT22;10869;52.238;10.716;2022-09-09T09:30:52;22.10;99.90
21417;DHT22;10869;52.238;10.716;2022-09-09T09:36:01;22.10;99.90
21417;DHT22;10869;52.238;10.716;2022-09-09T09:38:28;22.10;99.90
21417;DHT22;10869;52.238;10.716;2022-09-09T09:40:56;22.40;99.90
21417;DHT22;10869;52.238;10.716;2022-09-09T09:43:33;22.50;99.90
21417;DHT22;10869;52.238;10.716;2022-09-09T09:45:59;22.20;99.90
21417;DHT22;10869;52.238;10.716;2022-09-09T09:48:30;22.00;99.90
21417;DHT22;10869;52.238;10.716;2022-09-09T09:50:59;22.10;99.90
21417;DHT22;10869;52.238;10.716;2022-09-09T09:53:29;22.40;99.90
21417;DHT22;10869;52.238;10.716;2022-09-09T09:58:32;23.00;99.90
21417;DHT22;10869;52.238;10.716;2022-09-09T10:01:00;22.50;99.90
21417;DHT22;10869;52.238;10.716;2022-09-09T10:05:54;22.00;99.90
21417;DHT22;10869;52.238;10.716;2022-09-09T10:14:30;23.10;99.90
21417;DHT22;10869;52.238;10.716;2022-09-09T10:17:17;23.10;99.90
21417;DHT22;10869;52.238;10.716;2022-09-09T10:22:49;22.80;99.90
21417;DHT22;10869;52.238;10.716;2022-09-09T10:28:00;22.50;99.90
21417;DHT22;10869;52.238;10.716;2022-09-09T10:30:35;22.70;99.90
21417;DHT22;10869;52.238;10.716;2022-09-09T10:33:05;22.90;99.90
21417;DHT22;10869;52.238;10.716;2022-09-09T10:38:17;22.70;99.90
21417;DHT22;10869;52.238;10.716;2022-09-09T10:57:39;23.40;99.80
21417;DHT22;10869;52.238;10.716;2022-09-09T11:00:19;23.50;99.90
21417;DHT22;10869;52.238;10.716;2022-09-09T11:03:12;23.30;99.90
21417;DHT22;10869;52.238;10.716;2022-09-09T11:08:26;23.40;99.90
21417;DHT22;10869;52.238;10.716;2022-09-09T11:16:39;23.80;99.70
21417;DHT22;10869;52.238;10.716;2022-09-09T11:21:50;23.10;99.90
21417;DHT22;10869;52.238;10.716;2022-09-09T11:31:16;22.50;99.90
21417;DHT22;10869;52.238;10.716;2022-09-09T11:43:49;22.00;99.90
21417;DHT22;10869;52.238;10.716;2022-09-09T11:49:42;21.80;99.90
21417;DHT22;10869;52.238;10.716;2022-09-09T11:55:32;22.50;99.00
21417;DHT22;10869;52.238;10.716;2022-09-09T11:58:03;22.70;98.70
21417;DHT22;10869;52.238;10.716;2022-09-09T12:15:32;23.10;97.60
21417;DHT22;10869;52.238;10.716;2022-09-09T12:17:58;22.80;97.80
21417;DHT22;10869;52.238;10.716;2022-09-09T12:24:10;22.90;97.20
21417;DHT22;10869;52.238;10.716;2022-09-09T12:27:07;22.90;97.50
21417;DHT22;10869;52.238;10.716;2022-09-09T12:30:02;22.50;97.10
21417;DHT22;10869;52.238;10.716;2022-09-09T12:32:28;22.40;97.50
21417;DHT22;10869;52.238;10.716;2022-09-09T12:35:02;22.30;98.00
21417;DHT22;10869;52.238;10.716;2022-09-09T12:37:55;22.10;97.70
21417;DHT22;10869;52.238;10.716;2022-09-09T12:40:28;22.50;97.30
21417;DHT22;10869;52.238;10.716;2022-09-09T12:42:54;23.10;96.50
21417;DHT22;10869;52.238;10.716;2022-09-09T12:45:31;23.40;96.40
21417;DHT22;10869;52.238;10.716;2022-09-09T12:48:04;23.80;95.80
21417;DHT22;10869;52.238;10.716;2022-09-09T12:50:44;24.30;94.70
21417;DHT22;10869;52.238;10.716;2022-09-09T12:55:51;24.60;93.10
21417;DHT22;10869;52.238;10.716;2022-09-09T13:01:39;24.00;93.60
21417;DHT22;10869;52.238;10.716;2022-09-09T13:04:19;24.20;92.70
21417;DHT22;10869;52.238;10.716;2022-09-09T13:10:11;24.30;92.60
21417;DHT22;10869;52.238;10.716;2022-09-09T13:12:38;24.40;93.10
21417;DHT22;10869;52.238;10.716;2022-09-09T13:15:04;24.00;92.20
21417;DHT22;10869;52.238;10.716;2022-09-09T13:17:36;23.40;93.00
21417;DHT22;10869;52.238;10.716;2022-09-09T13:20:02;23.00;93.30
21417;DHT22;10869;52.238;10.716;2022-09-09T13:22:34;22.60;93.70
21417;DHT22;10869;52.238;10.716;2022-09-09T13:27:41;22.20;94.50
21417;DHT22;10869;52.238;10.716;2022-09-09T13:30:29;22.20;95.10
21417;DHT22;10869;52.238;10.716;2022-09-09T13:33:06;22.20;95.10
21417;DHT22;10869;52.238;10.716;2022-09-09T13:35:32;22.40;95.20
21417;DHT22;10869;52.238;10.716;2022-09-09T13:38:06;22.70;94.80
21417;DHT22;10869;52.238;10.716;2022-09-09T13:40:33;22.80;94.00
21417;DHT22;10869;52.238;10.716;2022-09-09T13:43:00;22.90;94.30
21417;DHT22;10869;52.238;10.716;2022-09-09T13:45:27;22.80;94.10
21417;DHT22;10869;52.238;10.716;2022-09-09T13:47:54;22.60;94.50
21417;DHT22;10869;52.238;10.716;2022-09-09T13:52:47;22.20;94.40
21417;DHT22;10869;52.238;10.716;2022-09-09T13:55:14;22.10;94.10
21417;DHT22;10869;52.238;10.716;2022-09-09T14:01:02;22.10;96.50
21417;DHT22;10869;52.238;10.716;2022-09-09T14:03:28;22.20;97.20
21417;DHT22;10869;52.238;10.716;2022-09-09T14:09:17;22.30;97.30
21417;DHT22;10869;52.238;10.716;2022-09-09T14:11:48;22.00;97.80
21417;DHT22;10869;52.238;10.716;2022-09-09T14:14:14;21.80;98.40
21417;DHT22;10869;52.238;10.716;2022-09-09T14:16:40;21.50;98.90
21417;DHT22;10869;52.238;10.716;2022-09-09T14:19:07;21.50;99.80
21417;DHT22;10869;52.238;10.716;2022-09-09T14:21:33;21.50;99.90
21417;DHT22;10869;52.238;10.716;2022-09-09T14:23:58;21.60;99.80
21417;DHT22;10869;52.238;10.716;2022-09-09T14:26:25;21.70;99.90
21417;DHT22;10869;52.238;10.716;2022-09-09T14:28:51;21.80;99.80
21417;DHT22;10869;52.238;10.716;2022-09-09T14:31:17;22.00;99.20
21417;DHT22;10869;52.238;10.716;2022-09-09T14:33:44;22.10;98.70
21417;DHT22;10869;52.238;10.716;2022-09-09T14:36:11;22.20;98.10
21417;DHT22;10869;52.238;10.716;2022-09-09T14:38:38;22.10;98.40
21417;DHT22;10869;52.238;10.716;2022-09-09T14:41:14;22.00;98.50
21417;DHT22;10869;52.238;10.716;2022-09-09T14:43:44;21.90;99.60
21417;DHT22;10869;52.238;10.716;2022-09-09T14:46:12;21.90;99.30
21417;DHT22;10869;52.238;10.716;2022-09-09T14:48:38;21.80;99.30
21417;DHT22;10869;52.238;10.716;2022-09-09T14:51:10;21.70;99.00
21417;DHT22;10869;52.238;10.716;2022-09-09T14:53:39;21.70;99.30
21417;DHT22;10869;52.238;10.716;2022-09-09T14:56:06;21.60;99.50
21417;DHT22;10869;52.238;10.716;2022-09-09T14:58:32;21.50;99.80
21417;DHT22;10869;52.238;10.716;2022-09-09T15:01:09;21.40;99.70
21417;DHT22;10869;52.238;10.716;2022-09-09T15:03:39;21.30;99.90
21417;DHT22;10869;52.238;10.716;2022-09-09T15:06:07;21.20;99.90
21417;DHT22;10869;52.238;10.716;2022-09-09T15:08:37;21.10;99.90
21417;DHT22;10869;52.238;10.716;2022-09-09T15:11:04;21.00;99.90
21417;DHT22;10869;52.238;10.716;2022-09-09T15:13:31;20.90;99.90
21417;DHT22;10869;52.238;10.716;2022-09-09T15:16:06;20.80;99.90
21417;DHT22;10869;52.238;10.716;2022-09-09T15:18:33;20.80;99.90
21417;DHT22;10869;52.238;10.716;2022-09-09T15:20:59;20.70;99.90
21417;DHT22;10869;52.238;10.716;2022-09-09T15:23:27;20.60;99.90
21417;DHT22;10869;52.238;10.716;2022-09-09T15:25:54;20.50;99.90
21417;DHT22;10869;52.238;10.716;2022-09-09T15:28:21;20.50;99.90
21417;DHT22;10869;52.238;10.716;2022-09-09T15:30:54;20.40;99.90
21417;DHT22;10869;52.238;10.716;2022-09-09T15:33:22;20.40;99.90
21417;DHT22;10869;52.238;10.716;2022-09-09T15:39:12;20.30;99.90
21417;DHT22;10869;52.238;10.716;2022-09-09T15:41:44;20.20;99.90
21417;DHT22;10869;52.238;10.716;2022-09-09T15:44:10;20.20;99.90
21417;DHT22;10869;52.238;10.716;2022-09-09T15:46:49;20.10;99.90
21417;DHT22;10869;52.238;10.716;2022-09-09T15:49:18;20.10;99.90
21417;DHT22;10869;52.238;10.716;2022-09-09T15:51:46;20.10;99.90
21417;DHT22;10869;52.238;10.716;2022-09-09T15:54:15;20.10;99.90
21417;DHT22;10869;52.238;10.716;2022-09-09T15:56:54;20.00;99.90
21417;DHT22;10869;52.238;10.716;2022-09-09T15:59:23;20.00;99.90
21417;DHT22;10869;52.238;10.716;2022-09-09T16:01:49;20.00;99.90
21417;DHT22;10869;52.238;10.716;2022-09-09T16:04:17;20.00;99.90
21417;DHT22;10869;52.238;10.716;2022-09-09T16:06:53;20.00;99.90
21417;DHT22;10869;52.238;10.716;2022-09-09T16:09:20;20.00;99.90
21417;DHT22;10869;52.238;10.716;2022-09-09T16:11:46;20.10;99.90
21417;DHT22;10869;52.238;10.716;2022-09-09T16:14:13;20.20;99.90
21417;DHT22;10869;52.238;10.716;2022-09-09T16:16:41;20.40;99.90
21417;DHT22;10869;52.238;10.716;2022-09-09T16:19:10;20.50;99.90
21417;DHT22;10869;52.238;10.716;2022-09-09T16:21:40;20.60;99.90
21417;DHT22;10869;52.238;10.716;2022-09-09T16:24:08;20.60;99.90
21417;DHT22;10869;52.238;10.716;2022-09-09T16:26:36;20.60;99.90
21417;DHT22;10869;52.238;10.716;2022-09-09T16:29:02;20.50;99.90
21417;DHT22;10869;52.238;10.716;2022-09-09T16:34:50;20.50;99.90
21417;DHT22;10869;52.238;10.716;2022-09-09T16:40:38;20.50;99.90
21417;DHT22;10869;52.238;10.716;2022-09-09T16:53:13;20.00;99.90
21417;DHT22;10869;52.238;10.716;2022-09-09T16:59:05;19.90;99.90
21417;DHT22;10869;52.238;10.716;2022-09-09T17:01:37;19.80;99.90
21417;DHT22;10869;52.238;10.716;2022-09-09T17:04:05;19.70;99.90
21417;DHT22;10869;52.238;10.716;2022-09-09T17:06:38;19.60;99.90
21417;DHT22;10869;52.238;10.716;2022-09-09T17:09:08;19.50;99.90
21417;DHT22;10869;52.238;10.716;2022-09-09T17:11:38;19.40;99.90
21417;DHT22;10869;52.238;10.716;2022-09-09T17:17:26;19.20;99.90
21417;DHT22;10869;52.238;10.716;2022-09-09T17:23:14;19.00;99.90
21417;DHT22;10869;52.238;10.716;2022-09-09T17:29:03;18.80;99.90
21417;DHT22;10869;52.238;10.716;2022-09-09T17:31:30;18.70;99.90
21417;DHT22;10869;52.238;10.716;2022-09-09T17:37:18;18.60;99.90
21417;DHT22;10869;52.238;10.716;2022-09-09T17:43:06;18.50;99.90
21417;DHT22;10869;52.238;10.716;2022-09-09T17:45:35;18.40;99.90
21417;DHT22;10869;52.238;10.716;2022-09-09T17:48:01;18.40;99.90
21417;DHT22;10869;52.238;10.716;2022-09-09T17:53:51;18.40;99.90
21417;DHT22;10869;52.238;10.716;2022-09-09T17:56:19;18.30;99.90
21417;DHT22;10869;52.238;10.716;2022-09-09T17:58:49;18.20;99.90
21417;DHT22;10869;52.238;10.716;2022-09-09T18:01:18;18.20;99.90
21417;DHT22;10869;52.238;10.716;2022-09-09T18:03:45;18.10;99.90
21417;DHT22;10869;52.238;10.716;2022-09-09T18:06:20;18.00;99.90
21417;DHT22;10869;52.238;10.716;2022-09-09T18:08:51;18.00;99.90
21417;DHT22;10869;52.238;10.716;2022-09-09T18:14:39;17.90;99.90
21417;DHT22;10869;52.238;10.716;2022-09-09T18:17:05;17.80;99.90
21417;DHT22;10869;52.238;10.716;2022-09-09T18:19:31;17.80;99.90
21417;DHT22;10869;52.238;10.716;2022-09-09T18:21:57;17.70;99.90
21417;DHT22;10869;52.238;10.716;2022-09-09T18:24:23;17.70;99.90
21417;DHT22;10869;52.238;10.716;2022-09-09T18:26:50;17.60;99.90
21417;DHT22;10869;52.238;10.716;2022-09-09T18:29:18;17.50;99.90
21417;DHT22;10869;52.238;10.716;2022-09-09T18:31:46;17.40;99.90
21417;DHT22;10869;52.238;10.716;2022-09-09T18:34:13;17.40;99.90
21417;DHT22;10869;52.238;10.716;2022-09-09T18:36:47;17.30;99.90
21417;DHT22;10869;52.238;10.716;2022-09-09T18:39:16;17.30;99.90
21417;DHT22;10869;52.238;10.716;2022-09-09T18:41:44;17.30;99.90
21417;DHT22;10869;52.238;10.716;2022-09-09T18:44:16;17.30;99.90
21417;DHT22;10869;52.238;10.716;2022-09-09T18:46:43;17.30;99.90
21417;DHT22;10869;52.238;10.716;2022-09-09T18:52:31;17.20;99.90
21417;DHT22;10869;52.238;10.716;2022-09-09T18:54:57;17.10;99.90
21417;DHT22;10869;52.238;10.716;2022-09-09T18:57:23;17.20;99.90
21417;DHT22;10869;52.238;10.716;2022-09-09T18:59:49;17.20;99.90
21417;DHT22;10869;52.238;10.716;2022-09-09T19:05:38;17.40;99.90
21417;DHT22;10869;52.238;10.716;2022-09-09T19:08:04;17.50;99.90
21417;DHT22;10869;52.238;10.716;2022-09-09T19:10:35;17.50;99.90
21417;DHT22;10869;52.238;10.716;2022-09-09T19:13:04;17.60;99.90
21417;DHT22;10869;52.238;10.716;2022-09-09T19:15:29;17.60;99.90
21417;DHT22;10869;52.238;10.716;2022-09-09T19:21:22;17.70;99.90
21417;DHT22;10869;52.238;10.716;2022-09-09T19:24:00;17.70;99.90
21417;DHT22;10869;52.238;10.716;2022-09-09T19:29:48;17.70;99.90
21417;DHT22;10869;52.238;10.716;2022-09-09T19:32:13;17.90;99.90
21417;DHT22;10869;52.238;10.716;2022-09-09T19:34:39;18.00;99.90
21417;DHT22;10869;52.238;10.716;2022-09-09T19:37:05;18.00;99.90
21417;DHT22;10869;52.238;10.716;2022-09-09T19:42:53;17.90;99.90
21417;DHT22;10869;52.238;10.716;2022-09-09T19:45:22;17.80;99.90
21417;DHT22;10869;52.238;10.716;2022-09-09T19:51:16;17.70;99.90
21417;DHT22;10869;52.238;10.716;2022-09-09T19:57:04;17.60;99.90
21417;DHT22;10869;52.238;10.716;2022-09-09T19:59:30;17.50;99.90
21417;DHT22;10869;52.238;10.716;2022-09-09T20:01:56;17.50;99.90
21417;DHT22;10869;52.238;10.716;2022-09-09T20:04:22;17.40;99.90
21417;DHT22;10869;52.238;10.716;2022-09-09T20:06:48;17.30;99.90
21417;DHT22;10869;52.238;10.716;2022-09-09T20:09:18;17.30;99.90
21417;DHT22;10869;52.238;10.716;2022-09-09T20:11:45;17.30;99.90
21417;DHT22;10869;52.238;10.716;2022-09-09T20:14:12;17.30;99.90
21417;DHT22;10869;52.238;10.716;2022-09-09T20:16:38;17.30;99.90
21417;DHT22;10869;52.238;10.716;2022-09-09T20:19:06;17.30;99.90
21417;DHT22;10869;52.238;10.716;2022-09-09T20:21:34;17.20;99.90
21417;DHT22;10869;52.238;10.716;2022-09-09T20:24:02;17.20;99.90
21417;DHT22;10869;52.238;10.716;2022-09-09T20:26:30;17.20;99.90
21417;DHT22;10869;52.238;10.716;2022-09-09T20:29:01;17.30;99.90
21417;DHT22;10869;52.238;10.716;2022-09-09T20:31:30;17.30;99.90
21417;DHT22;10869;52.238;10.716;2022-09-09T20:33:57;17.30;99.90
21417;DHT22;10869;52.238;10.716;2022-09-09T20:36:28;17.30;99.90
21417;DHT22;10869;52.238;10.716;2022-09-09T20:39:06;17.30;99.90
21417;DHT22;10869;52.238;10.716;2022-09-09T20:41:34;17.30;99.90
21417;DHT22;10869;52.238;10.716;2022-09-09T20:44:03;17.30;99.90
21417;DHT22;10869;52.238;10.716;2022-09-09T20:46:35;17.30;99.90
21417;DHT22;10869;52.238;10.716;2022-09-09T20:49:02;17.30;99.90
21417;DHT22;10869;52.238;10.716;2022-09-09T20:51:30;17.40;99.90
21417;DHT22;10869;52.238;10.716;2022-09-09T20:54:06;17.40;99.90
21417;DHT22;10869;52.238;10.716;2022-09-09T20:56:35;17.40;99.90
21417;DHT22;10869;52.238;10.716;2022-09-09T20:59:04;17.40;99.90
21417;DHT22;10869;52.238;10.716;2022-09-09T21:01:30;17.50;99.90
21417;DHT22;10869;52.238;10.716;2022-09-09T21:03:56;17.50;99.90
21417;DHT22;10869;52.238;10.716;2022-09-09T21:06:21;17.50;99.90
21417;DHT22;10869;52.238;10.716;2022-09-09T21:08:47;17.60;99.90
21417;DHT22;10869;52.238;10.716;2022-09-09T21:11:14;17.60;99.90
21417;DHT22;10869;52.238;10.716;2022-09-09T21:13:40;17.60;99.90
21417;DHT22;10869;52.238;10.716;2022-09-09T21:16:08;17.60;99.90
21417;DHT22;10869;52.238;10.716;2022-09-09T21:18:34;17.60;99.90
21417;DHT22;10869;52.238;10.716;2022-09-09T21:21:00;17.60;99.90
21417;DHT22;10869;52.238;10.716;2022-09-09T21:23:27;17.60;99.90
21417;DHT22;10869;52.238;10.716;2022-09-09T21:25:53;17.60;99.90
21417;DHT22;10869;52.238;10.716;2022-09-09T21:28:20;17.60;99.90
21417;DHT22;10869;52.238;10.716;2022-09-09T21:30:50;17.60;99.90
21417;DHT22;10869;52.238;10.716;2022-09-09T21:33:18;17.60;99.90
21417;DHT22;10869;52.238;10.716;2022-09-09T21:35:44;17.60;99.90
21417;DHT22;10869;52.238;10.716;2022-09-09T21:38:13;17.60;99.90
21417;DHT22;10869;52.238;10.716;2022-09-09T21:40:40;17.60;99.90
21417;DHT22;10869;52.238;10.716;2022-09-09T21:43:07;17.50;99.90
21417;DHT22;10869;52.238;10.716;2022-09-09T21:45:37;17.50;99.90
21417;DHT22;10869;52.238;10.716;2022-09-09T21:48:09;17.50;99.90
21417;DHT22;10869;52.238;10.716;2022-09-09T21:50:36;17.40;99.90
21417;DHT22;10869;52.238;10.716;2022-09-09T21:53:03;17.40;99.90
21417;DHT22;10869;52.238;10.716;2022-09-09T21:55:32;17.30;99.90
21417;DHT22;10869;52.238;10.716;2022-09-09T21:57:59;17.30;99.90
21417;DHT22;10869;52.238;10.716;2022-09-09T22:00:25;17.20;99.90
21417;DHT22;10869;52.238;10.716;2022-09-09T22:02:51;17.10;99.90
21417;DHT22;10869;52.238;10.716;2022-09-09T22:05:17;17.10;99.90
21417;DHT22;10869;52.238;10.716;2022-09-09T22:07:43;17.00;99.90
21417;DHT22;10869;52.238;10.716;2022-09-09T22:10:09;17.00;99.90
21417;DHT22;10869;52.238;10.716;2022-09-09T22:12:36;16.90;99.90
21417;DHT22;10869;52.238;10.716;2022-09-09T22:15:02;16.90;99.90
21417;DHT22;10869;52.238;10.716;2022-09-09T22:17:28;16.90;99.90
21417;DHT22;10869;52.238;10.716;2022-09-09T22:19:54;16.90;99.90
21417;DHT22;10869;52.238;10.716;2022-09-09T22:22:20;16.90;99.90
21417;DHT22;10869;52.238;10.716;2022-09-09T22:24:46;16.80;99.90
21417;DHT22;10869;52.238;10.716;2022-09-09T22:27:12;16.80;99.90
21417;DHT22;10869;52.238;10.716;2022-09-09T22:29:40;16.80;99.90
21417;DHT22;10869;52.238;10.716;2022-09-09T22:32:06;16.80;99.90
21417;DHT22;10869;52.238;10.716;2022-09-09T22:34:32;16.70;99.90
21417;DHT22;10869;52.238;10.716;2022-09-09T22:37:01;16.70;99.90
21417;DHT22;10869;52.238;10.716;2022-09-09T22:39:27;16.70;99.90
21417;DHT22;10869;52.238;10.716;2022-09-09T22:41:53;16.60;99.90
21417;DHT22;10869;52.238;10.716;2022-09-09T22:44:25;16.60;99.90